Cristiano De Luca

Chefscout - Latina
11 Mär 2027
Donnerstag
Verarbeitung

Persönlichkeit

Anpassungsfähigkeit (14) Ehrgeiz (17) Kontroverse (15) Loyalität (1) Druck (4) Professionalität (13) Fairness (5) Temperament (4)

Profil

Trainerstil Demokratisch
Lizenz Kontinentale C
Entschlossenheit 7
Menschenführung 4
Motivation 8
Disziplin 2
Arbeitszufriedenheit
71%
Ermüdung
0%
Rolle Chefscout
Gehalt 45.6K p/W
Vertrag 14.03.2027

Leistung

Verhalten Gut
Trainingseffektivität
18%
Spielerentwicklung
20%
Verletzungsprävention
45%
Taktische Umsetzung
30%

Letzte Ereignisse

Nahm an einer Scouting-Besprechung teil jetzt
Nahm an einer Scouting-Besprechung teil jetzt
Nahm an einer Scouting-Besprechung teil jetzt
Nahm an einer Scouting-Besprechung teil jetzt
Nahm an einer Scouting-Besprechung teil jetzt
Nahm an einer Scouting-Besprechung teil jetzt
Nahm an einer Scouting-Besprechung teil jetzt
Nahm an einer Scouting-Besprechung teil jetzt

Aktuell beobachtet

169
Spieler Verein Status Fähigkeit Vertrauen Beobachtet Zuletzt beobachtet Letzte Stimme
Juan Ignacio Brunet Campobasso Verhandlung 84 / 95 69% 1 01.01.2027 Befürworten
Marco Pompetti Padova Aktiv 123 / 130 40% 2 30.12.2026 Mehr Infos nötig
Evidence Dala Black Aces Aktiv 107 / 119 40% 1 30.12.2026 -
Siyanda Msani University of Pretoria Aktiv 96 / 111 40% 3 29.12.2026 -
Francesco Proietto Pianese Aktiv 98 / 91 40% 2 29.12.2026 -
Julián Illanes Carrarese Aktiv 124 / 120 40% 1 29.12.2026 Mehr Infos nötig
Erick Hlatshwayo Ajax Cape Town Aktiv 99 / 86 40% 2 28.12.2026 -
Matteo Pessina Monza Aktiv 138 / 121 40% 5 28.12.2026 Beobachten
Simone Nicoli Trapani Aktiv 104 / 105 40% 1 28.12.2026 -
Filippo Oliana Carrarese Aktiv 108 / 112 40% 2 27.12.2026 -
João Muniz Sporting CP Aktiv 118 / 123 40% 1 27.12.2026 Mehr Infos nötig
Percy Jali Free State Stars Aktiv 93 / 97 40% 1 27.12.2026 -
Mandla Erasmus SuperSport United Aktiv 127 / 142 40% 4 26.12.2026 Beobachten
Wesley Tarxien Rainbows Aktiv 90 / 95 40% 1 26.12.2026 -
Federico Zuccon Foggia Aktiv 108 / 104 40% 1 26.12.2026 -
Happy Mashiane Bloemfontein Celtic Aktiv 103 / 116 40% 2 24.12.2026 -
Matteo Angeli Perugia Aktiv 113 / 101 40% 1 24.12.2026 -
Federico Gattoni Ascoli Aktiv 132 / 129 40% 1 24.12.2026 Mehr Infos nötig
Francesco Amatucci Cittadella Aktiv 118 / 113 40% 1 23.12.2026 -
Zan Oblak NK Domzale Aktiv 123 / 120 40% 1 23.12.2026 -
Eyob Zambataro Novara Aktiv 100 / 91 40% 1 23.12.2026 -
Sinoxolo Kwayiba Chippa United Aktiv 99 / 126 40% 2 22.12.2026 -
Matthias Braunöder Carrarese Aktiv 122 / 128 40% 2 22.12.2026 -
Marco Imperiale Catanzaro Aktiv 129 / 123 40% 1 22.12.2026 -
Jordan Lotomba Bloemfontein Celtic Aktiv 121 / 134 40% 4 21.12.2026 Beobachten
Williams Manyama SuperSport United Aktiv 125 / 122 40% 2 21.12.2026 Mehr Infos nötig
Andrii Poniedielnik Kolos Aktiv 100 / 128 40% 1 21.12.2026 -
Samuele Regazzetti Livorno Aktiv 108 / 112 40% 2 18.12.2026 -
Nicolás Arévalo Metalist Aktiv 116 / 123 40% 1 18.12.2026 -
Oliver Urso Lecco Aktiv 102 / 92 40% 1 18.12.2026 -
Leonardo Di Cosmo Pianese Aktiv 94 / 100 40% 2 17.12.2026 -
Sava Radić Valletta Aktiv 98 / 87 40% 1 17.12.2026 -
Tommaso Maggioni Juve Stabia Aktiv 110 / 117 40% 3 14.12.2026 -
Themba Mokotjo Platinum Stars Aktiv 100 / 111 40% 2 14.12.2026 -
Khama Manyama Ajax Cape Town Aktiv 101 / 112 40% 1 14.12.2026 -
Ryan Sweeney Mansfield Town Aktiv 116 / 96 40% 1 11.12.2026 -
Christian Kouan Benevento Aktiv 109 / 116 40% 2 10.12.2026 -
Luan Patrick Estrela da Amadora Aktiv 128 / 122 40% 1 10.12.2026 Mehr Infos nötig
Davide Zappella Guidonia Montecelio Aktiv 98 / 103 40% 1 10.12.2026 -
Matteo Lovato Padova Aktiv 133 / 117 40% 2 09.12.2026 Mehr Infos nötig
Achraf el Bouchataoui Pro Vercelli Aktiv 106 / 108 40% 2 09.12.2026 -
Matías Galarza Talleres Aktiv 115 / 126 40% 2 08.12.2026 -
Lee O'Connor Tranmere Rovers Aktiv 93 / 94 40% 1 08.12.2026 -
Gian Luca Mastromonaco Renate Aktiv 94 / 106 40% 1 08.12.2026 -
Gabriele Corbo Campobasso Aktiv 115 / 105 40% 2 06.12.2026 -
Pavel Maslov Chaika Aktiv 101 / 94 40% 1 06.12.2026 -
Ilir Krasniqi Polissia Aktiv 125 / 123 40% 1 04.12.2026 -
Michal Fukala Zlin Aktiv 117 / 104 40% 1 04.12.2026 -
Lucas Barros Vojvodina Aktiv 103 / 112 40% 1 04.12.2026 -
Siro Rosané Estudiantes Aktiv 113 / 130 40% 2 03.12.2026 -
Vinícius Crotone Aktiv 100 / 94 40% 1 03.12.2026 -
Roberto Pierno Campobasso Aktiv 95 / 107 40% 1 03.12.2026 -
Manuel Di Paola Vis Pesaro Aktiv 108 / 104 40% 1 02.12.2026 -
Gonzalo Gamarra Floriana Aktiv 99 / 109 40% 1 02.12.2026 -
Andrea Carboni Monza Aktiv 131 / 118 40% 5 01.12.2026 -
Corey O'Keeffe Barnsley Aktiv 103 / 112 40% 1 01.12.2026 -
Iker Pozo Rodina Aktiv 128 / 128 40% 1 29.11.2026 -
Alessandro Martina Campobasso Aktiv 100 / 84 40% 1 29.11.2026 -
Pietro Martino Casertana Aktiv 110 / 112 40% 2 28.11.2026 -
Federico Artioli Juve Stabia Aktiv 108 / 105 40% 1 28.11.2026 -
Matteo Borsoi Pineto Aktiv 98 / 111 40% 1 28.11.2026 -
Ewan Henderson Wycombe Wanderers Aktiv 106 / 120 40% 1 27.11.2026 -
Agustín Dattola Almirante Brown Aktiv 124 / 134 40% 1 27.11.2026 -
Marco Bellich Juve Stabia Aktiv 117 / 109 40% 1 26.11.2026 -
Arne Maier Ujpest Aktiv 112 / 122 40% 1 26.11.2026 -
Nohan Kenneh Tranmere Rovers Aktiv 89 / 83 40% 1 24.11.2026 -
Denver Hume Fleetwood Town Aktiv 97 / 115 40% 1 24.11.2026 -
Thomas Battistella Juve Stabia Aktiv 110 / 100 40% 2 23.11.2026 -
Ítalo Ural Aktiv 112 / 125 40% 1 23.11.2026 -
Johnly Yfeko Exeter City Aktiv 109 / 100 40% 3 22.11.2026 -
Ranko Jokić Radnicki Nis Aktiv 116 / 95 40% 1 22.11.2026 -
Antonio Metlika Lecco Aktiv 98 / 118 40% 1 20.11.2026 -
Abdoul Guiebré Ascoli Aktiv 105 / 92 40% 1 20.11.2026 -
Veljko Mijailović Koper Aktiv 116 / 121 40% 1 19.11.2026 -
Gianluca Busio Venezia Aktiv 130 / 145 40% 1 19.11.2026 -
Simone Trimboli Mantova Aktiv 126 / 128 40% 1 18.11.2026 -
Elliott Moore Northampton Town Aktiv 107 / 110 40% 1 18.11.2026 -
Lorenzo Carissoni Padova Aktiv 118 / 125 40% 1 17.11.2026 -
Ramahlwe Vilakazi Free State Stars Aktiv 131 / 112 40% 1 17.11.2026 -
Toma Bašić Venezia Aktiv 129 / 128 40% 2 15.11.2026 -
Filippo Pirola Alcione Milano Aktiv 109 / 98 40% 1 15.11.2026 -
Giulio Favale Casertana Aktiv 102 / 112 40% 1 15.11.2026 -
Ed Turns Exeter City Aktiv 95 / 85 40% 1 14.11.2026 -
Raffaele Celia Benevento Aktiv 110 / 114 40% 1 14.11.2026 -
Alejo Tabares All Boys Aktiv 127 / 126 40% 1 14.11.2026 -
Rodney Maphangule Polokwane City Aktiv 119 / 122 40% 2 13.11.2026 -
Daniele Solcia Sorrento Aktiv 107 / 116 40% 1 13.11.2026 -
Alan Barrionuevo Tigre Aktiv 118 / 139 40% 1 12.11.2026 -
Nicolas Previtali Giana Erminio Aktiv 105 / 107 40% 1 12.11.2026 -
Kelland Watts Cambridge United Aktiv 100 / 105 40% 1 11.11.2026 -
Manuel Alagna Ascoli Aktiv 100 / 103 40% 1 11.11.2026 -
Leonardo Sernicola Benevento Aktiv 115 / 107 40% 2 08.11.2026 -
Kelechi Nwakali Barnsley Aktiv 106 / 119 40% 1 08.11.2026 -
Juan Luis Alfaro Banfield Aktiv 117 / 120 40% 1 07.11.2026 -
Dan Casey Wycombe Wanderers Aktiv 110 / 108 40% 1 07.11.2026 -
Corrado Riviera Renate Aktiv 110 / 106 40% 1 06.11.2026 -
Alex Vigo Independiente Rivadavia Aktiv 119 / 100 40% 1 06.11.2026 -
Claudio Gomes Palermo Aktiv 117 / 122 40% 1 02.11.2026 -
Nemanja Tekijaški Jablonec Aktiv 109 / 125 40% 1 02.11.2026 -
Gastón Benedetti Estudiantes Aktiv 114 / 109 40% 1 02.11.2026 -
Lautaro Ríos Banfield Aktiv 109 / 131 40% 1 29.10.2026 -
Caolan Boyd-Munce Wycombe Wanderers Aktiv 124 / 113 40% 1 29.10.2026 -
Andrea Meroni Mantova Aktiv 131 / 137 40% 2 28.10.2026 -
Leandro Lozano Boca Juniors Aktiv 119 / 142 40% 1 28.10.2026 -
Álex Centelles Levski Aktiv 118 / 102 40% 1 28.10.2026 -
Santiago Ascacíbar Boca Juniors Aktiv 129 / 132 40% 1 27.10.2026 -
Samuele Birindelli Monza Aktiv 134 / 123 40% 1 26.10.2026 -
Andrea Ciofi Cesena Aktiv 130 / 124 40% 2 23.10.2026 -
Mattia Viti Sampdoria Aktiv 123 / 145 40% 1 23.10.2026 -
Tommaso Barbieri Cremonese Aktiv 138 / 116 40% 2 22.10.2026 -
Lorenzo Libutti Reggiana Aktiv 120 / 109 40% 1 22.10.2026 -
Andrei Coubiş Lincoln City Aktiv 104 / 121 40% 1 22.10.2026 -
Josh Benson Rotherham United Aktiv 111 / 106 40% 1 21.10.2026 -
Juan Yangali San Telmo Aktiv 124 / 126 40% 1 20.10.2026 -
Fabio Gerli Modena Aktiv 123 / 118 40% 1 20.10.2026 -
Keaton Parks Helsingborg Aktiv 127 / 128 40% 1 20.10.2026 -
Mathías de Ritis San Lorenzo Aktiv 128 / 100 40% 1 18.10.2026 -
Archie Collins Peterborough United Aktiv 112 / 114 40% 1 18.10.2026 -
Thomas Sandon Vicenza Aktiv 111 / 103 40% 1 17.10.2026 -
Andrea Cagnano Arezzo Aktiv 103 / 103 40% 1 17.10.2026 -
Nicolas Hurtado La Equidad Aktiv 109 / 107 40% 1 16.10.2026 -
Ulises Yegros Ferro Carril Oeste Aktiv 116 / 120 40% 1 16.10.2026 -
Ignacio Rodríguez Racing Club Aktiv 123 / 105 40% 1 14.10.2026 -
Luke Thomas Leicester City Aktiv 118 / 128 40% 1 14.10.2026 -
Tom Hamer Lincoln City Aktiv 112 / 122 40% 1 14.10.2026 -
Luis Jiménez Jaguares Aktiv 100 / 100 40% 1 11.10.2026 -
Jhon Gamboa Envigado Aktiv 104 / 97 40% 1 11.10.2026 -
Gabriel Díaz Patronato Aktiv 101 / 115 40% 2 08.10.2026 -
Walter Juárez Güemes Aktiv 122 / 104 40% 1 08.10.2026 -
Owen Bailey Doncaster Rovers Aktiv 113 / 97 40% 1 07.10.2026 -
Lucas Monzón Alvarado Aktiv 121 / 131 40% 1 07.10.2026 -
Zak Swanson Bradford City Aktiv 109 / 124 40% 2 06.10.2026 -
Lewis Bate Stockport County Aktiv 120 / 132 40% 1 06.10.2026 -
Juan Camilo Mosquera Atletico Bucaramanga Aktiv 104 / 99 40% 1 06.10.2026 -
Eber Moreno Deportivo Pereira Aktiv 115 / 110 40% 1 04.10.2026 -
Gabriele Piccinini Pisa Aktiv 129 / 128 40% 1 03.10.2026 -
Gianluca Frabotta Cesena Aktiv 124 / 108 40% 1 03.10.2026 -
Matías Kabalín Ferro Carril Oeste Aktiv 113 / 117 40% 1 03.10.2026 -
Maximiliano Luayza Koot Tristán Suárez Aktiv 116 / 105 40% 1 01.10.2026 -
Bruno Palazzo Nueva Chicago Aktiv 111 / 106 40% 1 01.10.2026 -
Samuel Velásquez Atletico Nacional Aktiv 129 / 133 40% 2 30.09.2026 -
Freddi Greco Monopoli Aktiv 115 / 112 40% 1 30.09.2026 -
Aaron Morley Wycombe Wanderers Aktiv 113 / 111 40% 1 29.09.2026 -
Tomás Castro Ponce Atlanta Aktiv 121 / 125 40% 1 29.09.2026 -
Juan Manuel Zapata Envigado Aktiv 122 / 127 40% 1 29.09.2026 -
Stiven Vega Millonarios Aktiv 123 / 99 40% 1 28.09.2026 -
Lautaro Blanco Boca Juniors Aktiv 131 / 143 40% 1 26.09.2026 -
Gaby Jean Lecce Aktiv 125 / 110 40% 1 26.09.2026 -
Lautaro Di Lollo Boca Juniors Aktiv 114 / 135 40% 1 26.09.2026 -
Juan Carlos Portillo River Plate Aktiv 129 / 123 40% 2 23.09.2026 -
Martín González San Telmo Aktiv 89 / 119 40% 1 23.09.2026 -
Emiliano Álvarez Progreso Aktiv 109 / 109 40% 1 22.09.2026 -
Leonardo Benedetti Virtus Entella Aktiv 108 / 117 40% 1 22.09.2026 -
Franco Díaz Temperley Aktiv 122 / 121 40% 1 21.09.2026 -
Victor Parada Spartak Moscow Aktiv 131 / 118 40% 1 21.09.2026 -
Yvo Calleros Madryn Aktiv 120 / 116 40% 1 21.09.2026 -
Facundo Velazco San Marcos de Arica Aktiv 99 / 90 40% 2 19.09.2026 -
Tomás Rojas Atlanta Aktiv 119 / 107 40% 1 19.09.2026 -
Andrea Papetti Vicenza Aktiv 115 / 131 40% 3 18.09.2026 -
David Ozoh Derby County Aktiv 116 / 116 40% 1 18.09.2026 -
Daniel Harvie Wycombe Wanderers Aktiv 113 / 116 40% 1 15.09.2026 -
Juan Rodríguez Cagliari Aktiv 119 / 128 40% 1 13.09.2026 -
Cristiano Bani Ravenna Aktiv 105 / 108 40% 1 13.09.2026 -
Joe Williams Bristol City Aktiv 125 / 130 40% 1 12.09.2026 -
Alejo Macelli Cerro Aktiv 100 / 100 40% 1 12.09.2026 -
Yeferson Rodallega Envigado Aktiv 101 / 120 40% 1 11.09.2026 -
Kane Wilson Milton Keynes Dons Aktiv 117 / 103 40% 1 11.09.2026 -
Fali Candé Sassuolo Aktiv 113 / 115 40% 1 08.09.2026 -
Fabio Depaoli Sampdoria Aktiv 111 / 121 40% 1 08.09.2026 -